createdAt,value
2022-11-08T00:01:56.796Z,65.46832
2022-11-08T00:06:59.896Z,64.39417
2022-11-08T00:12:01.786Z,63.52272
2022-11-08T00:17:03.462Z,63.11802
2022-11-08T00:22:05.593Z,65.29954
2022-11-08T00:27:08.537Z,67.05961
2022-11-08T00:32:10.289Z,66.51307
2022-11-08T00:37:12.337Z,68.18116
2022-11-08T00:42:13.973Z,67.31996
2022-11-08T00:47:15.632Z,67.93553
2022-11-08T00:52:17.432Z,66.31642
2022-11-08T00:57:22.236Z,64.93428
2022-11-08T01:02:26.476Z,64.74046
2022-11-08T01:07:28.263Z,65.87498
2022-11-08T01:12:29.857Z,62.65721
2022-11-08T01:17:31.521Z,61.45316
2022-11-08T01:22:33.146Z,64.61427
2022-11-08T01:27:34.858Z,64.64296
2022-11-08T01:32:36.483Z,65.30872
2022-11-08T01:37:38.261Z,63.71199
2022-11-08T01:42:39.964Z,62.52461
2022-11-08T01:47:41.869Z,63.58621
2022-11-08T01:52:43.483Z,62.14055
2022-11-08T01:57:45.230Z,60.68069
2022-11-08T02:02:47.046Z,61.38533
2022-11-08T02:07:48.665Z,61.63115
2022-11-08T02:12:51.384Z,60.71833
2022-11-08T02:17:53.111Z,61.41209
2022-11-08T02:22:54.838Z,59.64468
2022-11-08T02:27:56.625Z,59.93541
2022-11-08T02:32:58.365Z,60.29383
2022-11-08T02:38:00.166Z,60.52991
2022-11-08T02:43:01.938Z,61.02079
2022-11-08T02:48:03.831Z,60.16116
2022-11-08T02:53:05.552Z,61.19374
2022-11-08T02:58:07.416Z,62.49332
2022-11-08T03:03:09.511Z,61.68431
2022-11-08T03:08:11.238Z,57.92087
2022-11-08T03:13:12.865Z,61.92684
2022-11-08T03:18:14.779Z,63.7939
2022-11-08T03:23:16.583Z,63.45329
2022-11-08T03:28:22.687Z,61.85849
2022-11-08T03:33:24.865Z,61.55222
2022-11-08T03:38:26.577Z,62.16223
2022-11-08T03:43:28.243Z,61.09654
2022-11-08T03:48:29.993Z,58.59221
2022-11-08T03:53:31.847Z,58.74505
2022-11-08T03:58:33.691Z,59.52723
2022-11-08T04:03:35.352Z,62.62434
2022-11-08T04:08:37.154Z,63.50215
2022-11-08T04:13:38.947Z,63.37123
2022-11-08T04:18:40.617Z,64.10825
2022-11-08T04:23:42.267Z,65.63426
2022-11-08T04:28:43.983Z,64.17347
2022-11-08T04:33:45.740Z,62.47869
2022-11-08T04:38:47.441Z,60.81914
2022-11-08T04:43:49.060Z,67.65488
2022-11-08T04:48:51.572Z,71.57949
2022-11-08T04:53:53.313Z,71.98403
2022-11-08T04:58:55.793Z,68.21489
2022-11-08T05:03:57.902Z,65.87237
2022-11-08T05:08:59.522Z,63.67904
2022-11-08T05:14:01.225Z,66.29401
2022-11-08T05:19:06.124Z,65.96707
2022-11-08T05:24:14.572Z,62.89895
2022-11-08T05:29:16.426Z,63.15787
2022-11-08T05:34:18.317Z,62.37804
2022-11-08T05:39:20.212Z,67.08133
2022-11-08T05:44:23.352Z,66.78095
2022-11-08T05:49:24.981Z,65.6723
2022-11-08T05:54:31.740Z,66.41823
2022-11-08T05:59:33.664Z,62.90558
2022-11-08T06:04:35.517Z,63.60477
2022-11-08T06:09:37.144Z,62.92225
2022-11-08T06:14:39.025Z,63.82434
2022-11-08T06:19:40.766Z,63.30627
2022-11-08T06:24:42.431Z,63.87029
2022-11-08T06:29:44.535Z,65.51432
2022-11-08T06:34:46.206Z,63.44769
2022-11-08T06:39:48.544Z,63.73015
2022-11-08T06:44:50.272Z,66.00187
2022-11-08T06:49:52.068Z,68.58107
2022-11-08T06:54:53.914Z,68.4077
2022-11-08T06:59:55.748Z,66.16297
2022-11-08T07:04:58.001Z,66.32009
2022-11-08T07:10:03.608Z,67.39767
2022-11-08T07:15:06.260Z,68.18772
2022-11-08T07:20:08.254Z,67.2608
2022-11-08T07:25:09.958Z,67.40385
2022-11-08T07:30:12.444Z,66.33712
2022-11-08T07:35:14.135Z,65.59467
2022-11-08T07:40:16.728Z,66.62789
2022-11-08T07:45:19.059Z,67.16925
2022-11-08T07:50:21.572Z,65.11897
2022-11-08T07:55:23.721Z,64.51121
2022-11-08T08:00:25.558Z,64.71019
2022-11-08T08:05:29.961Z,64.60701
2022-11-08T08:10:31.777Z,65.6107
2022-11-08T08:15:33.630Z,65.62239
2022-11-08T08:20:35.311Z,64.50391
2022-11-08T08:25:36.962Z,62.62889
2022-11-08T08:30:38.892Z,62.66485
2022-11-08T08:35:40.828Z,61.96931
2022-11-08T08:40:42.814Z,64.55117
2022-11-08T08:45:44.454Z,60.80316
2022-11-08T08:50:46.067Z,63.23559
2022-11-08T08:55:47.825Z,64.68736
2022-11-08T09:06:21.248Z,66.1934
2022-11-08T09:11:22.941Z,65.49133
2022-11-08T09:16:24.577Z,64.42124
2022-11-08T09:21:26.550Z,63.28982
2022-11-08T09:26:28.697Z,63.24677
2022-11-08T09:31:30.320Z,64.40561
2022-11-08T09:36:31.924Z,64.04042
2022-11-08T09:41:33.597Z,65.29789
2022-11-08T09:46:35.278Z,62.84469
2022-11-08T09:51:36.939Z,62.49831
2022-11-08T09:56:38.532Z,63.35394
2022-11-08T10:01:40.329Z,64.66358
2022-11-08T10:06:42.120Z,63.26264
2022-11-08T10:11:43.861Z,61.08138
2022-11-08T10:16:45.516Z,61.37624
2022-11-08T10:21:47.155Z,59.66061
2022-11-08T10:26:48.970Z,58.91434
2022-11-08T10:31:50.948Z,62.1693
2022-11-08T10:36:52.663Z,63.27414
2022-11-08T10:41:54.296Z,61.91612
2022-11-08T10:46:55.921Z,60.0847
2022-11-08T10:51:57.611Z,61.798
2022-11-08T10:56:59.374Z,62.98351
2022-11-08T11:02:01.063Z,64.05115
2022-11-08T11:07:02.772Z,63.41285
2022-11-08T11:12:04.514Z,64.08924
2022-11-08T11:17:06.283Z,62.52592
2022-11-08T11:22:07.940Z,63.84454
2022-11-08T11:27:09.592Z,64.35542
2022-11-08T11:32:11.418Z,63.38067
2022-11-08T11:37:13.142Z,64.16168
2022-11-08T11:42:43.840Z,63.29979
2022-11-08T11:47:46.911Z,60.01791
2022-11-08T11:52:48.709Z,60.95284
2022-11-08T11:57:50.264Z,61.00552
2022-11-08T12:02:52.157Z,59.52257
2022-11-08T12:07:53.793Z,60.49974
2022-11-08T12:12:55.423Z,61.23589
2022-11-08T12:17:57.091Z,61.63323
2022-11-08T12:22:58.835Z,60.12782
2022-11-08T12:28:00.606Z,59.93454
2022-11-08T12:33:02.328Z,59.43159
2022-11-08T12:38:03.980Z,57.9055
2022-11-08T12:43:05.676Z,59.2889
2022-11-08T12:48:07.522Z,59.97048
2022-11-08T12:53:09.125Z,59.70718
2022-11-08T12:58:10.759Z,60.5808
2022-11-08T13:03:12.464Z,62.55508
2022-11-08T13:08:14.091Z,62.3826
2022-11-08T13:13:15.740Z,61.17233
2022-11-08T13:18:17.787Z,62.69972
2022-11-08T13:23:19.609Z,62.04665
2022-11-08T13:28:21.288Z,62.59335
2022-11-08T13:33:23.029Z,60.42055
2022-11-08T13:38:24.693Z,60.83664
2022-11-08T13:43:26.392Z,61.04209
2022-11-08T13:48:28.492Z,60.71462
2022-11-08T13:53:32.596Z,60.7752
2022-11-08T13:58:34.608Z,61.79471
2022-11-08T14:03:36.430Z,61.39248
2022-11-08T14:08:38.115Z,61.3753
2022-11-08T14:13:39.739Z,62.52903
2022-11-08T14:18:41.423Z,61.64169
2022-11-08T14:23:43.070Z,61.93865
2022-11-08T14:28:44.729Z,62.39676
2022-11-08T14:33:46.362Z,62.46307
2022-11-08T14:38:49.371Z,63.56286
2022-11-08T14:43:51.081Z,63.13677
2022-11-08T14:48:52.901Z,65.40339
2022-11-08T14:53:54.552Z,65.96772
2022-11-08T14:58:56.298Z,72.84625
2022-11-08T15:03:58.132Z,74.24386
2022-11-08T15:09:00.052Z,75.31244
2022-11-08T15:14:01.700Z,76.49836
2022-11-08T15:19:03.365Z,74.61921
2022-11-08T15:24:05.304Z,75.3635
2022-11-08T15:29:07.231Z,74.97236
2022-11-08T15:34:09.265Z,73.64269
2022-11-08T15:39:10.874Z,73.72275
2022-11-08T15:44:12.677Z,71.29368
2022-11-08T15:49:16.070Z,68.04764
2022-11-08T15:54:17.770Z,66.21603
2022-11-08T15:59:21.548Z,66.93405
2022-11-08T16:04:23.762Z,67.17016
2022-11-08T16:09:25.361Z,64.11508
2022-11-08T16:14:26.982Z,64.87914
2022-11-08T16:19:28.659Z,64.39219
2022-11-08T16:24:30.326Z,60.69206
2022-11-08T16:29:32.164Z,62.36096
2022-11-08T16:34:33.809Z,61.43679
2022-11-08T16:39:35.403Z,60.53939
2022-11-08T16:44:37.035Z,60.52632
2022-11-08T16:49:38.658Z,59.24706
2022-11-08T16:54:40.320Z,59.55145
2022-11-08T16:59:42.058Z,56.31102
2022-11-08T17:04:43.714Z,57.01674
2022-11-08T17:09:45.354Z,59.33754
2022-11-08T17:14:47.179Z,59.6324
2022-11-08T17:19:48.810Z,58.63965
2022-11-08T17:24:50.569Z,57.70402
2022-11-08T17:29:52.271Z,59.26097
2022-11-08T17:34:53.974Z,58.1614
2022-11-08T17:39:55.660Z,57.35259
2022-11-08T17:44:57.416Z,55.50542
2022-11-08T17:49:59.294Z,57.69393
2022-11-08T17:55:00.972Z,55.88467
2022-11-08T18:00:04.221Z,53.19968
2022-11-08T18:05:08.289Z,54.94426
2022-11-08T18:10:10.050Z,55.98121
2022-11-08T18:15:12.297Z,55.15582
2022-11-08T18:20:14.245Z,55.61808
2022-11-08T18:25:16.347Z,58.73711
2022-11-08T18:30:18.103Z,55.42679
2022-11-08T18:35:19.864Z,56.04055
2022-11-08T18:40:21.589Z,57.04406
2022-11-08T18:45:23.905Z,55.72403
2022-11-08T18:50:25.533Z,58.19108
2022-11-08T18:55:27.166Z,57.16431
2022-11-08T19:00:28.810Z,58.55716
2022-11-08T19:05:30.476Z,58.80979
2022-11-08T19:10:34.103Z,58.27507
2022-11-08T19:15:35.823Z,58.40563
2022-11-08T19:20:37.482Z,58.79999
2022-11-08T19:25:39.105Z,58.97756
2022-11-08T19:30:40.846Z,57.97101
2022-11-08T19:35:42.528Z,58.08445
2022-11-08T19:40:44.255Z,56.37768
2022-11-08T19:45:50.726Z,54.96556
2022-11-08T19:50:53.336Z,58.399
2022-11-08T19:55:54.988Z,57.93895
2022-11-08T20:00:56.678Z,59.85355
2022-11-08T20:05:58.402Z,59.61809
2022-11-08T20:11:00.140Z,56.64223
2022-11-08T20:16:01.790Z,57.31021
2022-11-08T20:21:03.413Z,57.87259
2022-11-08T20:26:05.061Z,56.27913
2022-11-08T20:31:06.731Z,55.63946
2022-11-08T20:36:08.366Z,55.40063
2022-11-08T20:41:10.013Z,55.69544
2022-11-08T20:46:11.708Z,53.43616
2022-11-08T20:51:13.432Z,56.32225
2022-11-08T20:56:15.175Z,54.67636
2022-11-08T21:01:16.961Z,54.99383
2022-11-08T21:06:18.783Z,56.06111
2022-11-08T21:11:20.428Z,55.17247
2022-11-08T21:16:29.928Z,55.3115
2022-11-08T21:21:32.502Z,53.94632
2022-11-08T21:26:36.064Z,55.11952
2022-11-08T21:31:38.308Z,52.13948
2022-11-08T21:36:39.949Z,51.10664
2022-11-08T21:41:41.579Z,51.97352
2022-11-08T21:46:43.342Z,52.21725
2022-11-08T21:51:44.949Z,53.44363
2022-11-08T21:56:46.616Z,54.07745
2022-11-08T22:01:48.210Z,53.19776
2022-11-08T22:06:50.044Z,54.10715
2022-11-08T22:11:51.740Z,55.56712
2022-11-08T22:16:53.360Z,54.60034
2022-11-08T22:21:55.053Z,54.11132
2022-11-08T22:26:56.881Z,55.99234
2022-11-08T22:31:58.495Z,56.78241
2022-11-08T22:37:00.119Z,58.75401
2022-11-08T22:42:01.751Z,57.78145
2022-11-08T22:47:03.676Z,58.77343
2022-11-08T22:52:05.408Z,59.23984
2022-11-08T22:57:07.102Z,58.19877
2022-11-08T23:02:08.915Z,57.33572
2022-11-08T23:07:10.736Z,57.85463
2022-11-08T23:12:13.124Z,58.89051
2022-11-08T23:17:14.795Z,58.26001
2022-11-08T23:22:16.458Z,58.59444
2022-11-08T23:27:18.333Z,58.35022
2022-11-08T23:32:20.090Z,58.85414
2022-11-08T23:37:21.703Z,58.164
2022-11-08T23:42:23.319Z,57.27149
2022-11-08T23:47:24.940Z,59.29721
2022-11-08T23:52:26.727Z,58.50643
2022-11-08T23:57:28.540Z,58.67532
